Time;durP1;ratioP1;P1;durP2;ratioP2;P2;SDS_P1;SDS_P2;PMS_P1;PMS_P2;Temp;Humidity;BMP_temperature;BMP_pressure;BME280_temperature;BME280_humidity;BME280_pressure;Samples;Min_cycle;Max_cycle;Signal;HPM_P1;HPM_P2
2023/10/27 00:01:24;;;;;;;5.00;2.80;;;12.10;99.90;;;12.30;100.00;98365.47;4819458;28;24531;-70
2023/10/27 00:03:46;;;;;;;3.55;2.90;;;12.20;99.90;;;12.32;100.00;98363.50;4839351;28;24451;-70
2023/10/27 00:06:08;;;;;;;4.90;3.10;;;12.20;99.90;;;12.35;100.00;98363.13;4837870;28;24451;-70
2023/10/27 00:08:30;;;;;;;3.40;2.70;;;12.20;99.90;;;12.33;100.00;98362.50;4834821;28;24524;-70
2023/10/27 00:10:53;;;;;;;4.28;2.90;;;12.20;99.90;;;12.33;100.00;98354.66;4831703;28;24484;-70
2023/10/27 00:13:15;;;;;;;5.45;3.40;;;12.20;99.90;;;12.29;100.00;98353.38;4816117;28;24847;-70
2023/10/27 00:15:37;;;;;;;5.93;3.00;;;12.20;99.90;;;12.30;100.00;98360.25;4835122;28;25086;-70
2023/10/27 00:17:59;;;;;;;3.93;2.60;;;12.20;99.90;;;12.28;100.00;98359.63;4827413;28;24452;-70
2023/10/27 00:20:22;;;;;;;8.13;3.23;;;12.20;99.90;;;12.26;100.00;98353.75;4836973;28;24527;-70
2023/10/27 00:22:43;;;;;;;5.63;3.00;;;12.10;99.90;;;12.29;100.00;98357.78;4836281;28;24519;-70
2023/10/27 00:25:06;;;;;;;5.63;2.78;;;12.20;99.90;;;12.27;100.00;98355.34;4852723;28;24548;-71
2023/10/27 00:27:28;;;;;;;6.72;2.75;;;12.20;99.90;;;12.30;100.00;98354.19;4853176;28;24440;-70
2023/10/27 00:29:50;;;;;;;5.65;3.03;;;12.20;99.90;;;12.32;100.00;98355.66;4834074;28;24564;-70
2023/10/27 00:32:12;;;;;;;4.32;2.40;;;12.20;99.90;;;12.29;100.00;98347.34;4826927;28;24551;-70
2023/10/27 00:34:34;;;;;;;6.07;2.70;;;12.20;99.90;;;12.33;100.00;98343.38;4834609;28;25067;-70
2023/10/27 00:36:56;;;;;;;7.20;3.20;;;12.20;99.90;;;12.30;100.00;98348.97;4836417;28;24448;-70
2023/10/27 00:39:18;;;;;;;5.13;2.60;;;12.20;99.90;;;12.27;100.00;98344.91;4830801;28;25001;-70
2023/10/27 00:41:39;;;;;;;7.60;2.70;;;12.20;99.90;;;12.24;100.00;98345.28;4827620;28;24854;-70
2023/10/27 00:44:01;;;;;;;5.47;2.70;;;12.10;99.90;;;12.26;100.00;98338.06;4849024;28;24471;-70
2023/10/27 00:46:23;;;;;;;5.15;2.47;;;12.20;99.90;;;12.26;100.00;98334.63;4857904;28;24484;-70
2023/10/27 00:48:45;;;;;;;3.17;2.40;;;12.20;99.90;;;12.25;100.00;98336.41;4834659;28;24444;-69
2023/10/27 00:51:09;;;;;;;4.85;2.80;;;12.10;99.90;;;12.24;100.00;98336.59;4849543;28;24448;-70
2023/10/27 00:53:32;;;;;;;5.55;2.50;;;12.10;99.90;;;12.24;100.00;98332.19;4829671;28;24488;-71
2023/10/27 00:55:55;;;;;;;8.25;2.78;;;12.10;99.90;;;12.25;100.00;98325.16;4835628;28;24523;-70
2023/10/27 00:58:17;;;;;;;10.07;3.10;;;12.10;99.90;;;12.28;100.00;98327.41;4831469;28;25045;-70
2023/10/27 01:00:39;;;;;;;6.30;2.85;;;12.10;99.90;;;12.23;100.00;98330.56;4834285;28;24444;-71
2023/10/27 01:03:01;;;;;;;6.82;3.03;;;12.10;99.90;;;12.24;100.00;98319.13;4835713;28;24524;-70
2023/10/27 01:05:23;;;;;;;6.32;2.80;;;12.10;99.90;;;12.26;100.00;98321.56;4835791;28;24440;-70
2023/10/27 01:07:45;;;;;;;4.25;2.90;;;12.10;99.90;;;12.20;100.00;98323.06;4837356;28;25204;-70
2023/10/27 01:10:08;;;;;;;8.98;3.35;;;12.10;99.90;;;12.21;100.00;98329.91;4837211;28;24540;-70
2023/10/27 01:12:31;;;;;;;4.82;2.65;;;12.10;99.90;;;12.19;100.00;98316.22;4836852;28;24459;-70
2023/10/27 01:14:53;;;;;;;6.68;2.95;;;12.10;99.90;;;12.16;100.00;98313.16;4839843;28;24540;-70
2023/10/27 01:17:15;;;;;;;5.68;2.70;;;12.10;99.90;;;12.15;100.00;98317.56;4834720;28;24486;-70
2023/10/27 01:19:37;;;;;;;7.47;2.83;;;12.00;99.90;;;12.12;100.00;98314.47;4835865;28;20781;-70
2023/10/27 01:21:59;;;;;;;6.97;2.97;;;12.00;99.90;;;12.15;100.00;98307.09;4837015;28;24475;-70
2023/10/27 01:24:22;;;;;;;7.40;3.20;;;12.00;99.90;;;12.10;100.00;98301.59;4823426;28;24432;-69
2023/10/27 01:26:44;;;;;;;5.13;2.78;;;12.00;99.90;;;12.13;100.00;98300.44;4835152;28;24866;-70
2023/10/27 01:29:06;;;;;;;6.30;3.42;;;12.00;99.90;;;12.17;100.00;98297.28;4826451;28;24457;-70
2023/10/27 01:31:28;;;;;;;7.70;2.90;;;12.00;99.90;;;12.16;100.00;98293.03;4832160;28;24432;-69
2023/10/27 01:33:50;;;;;;;7.80;3.10;;;12.00;99.90;;;12.16;100.00;98295.66;4821956;28;24453;-70
2023/10/27 01:36:12;;;;;;;5.50;3.00;;;12.00;99.90;;;12.14;100.00;98300.25;4833649;28;24428;-70
2023/10/27 01:38:34;;;;;;;5.20;3.03;;;12.00;99.90;;;12.07;100.00;98288.88;4830608;28;25001;-70
2023/10/27 01:40:56;;;;;;;7.28;3.38;;;12.00;99.90;;;12.06;100.00;98291.66;4827850;28;24435;-70
2023/10/27 01:43:18;;;;;;;6.70;3.15;;;12.00;99.90;;;12.06;100.00;98284.63;4835442;28;25090;-70
2023/10/27 01:45:40;;;;;;;4.40;2.60;;;11.90;99.90;;;12.09;100.00;98294.75;4835697;28;24444;-70
2023/10/27 01:48:02;;;;;;;8.18;3.50;;;12.00;99.90;;;12.09;100.00;98286.91;4830995;28;24502;-70
2023/10/27 01:50:24;;;;;;;9.95;3.60;;;12.00;99.90;;;12.06;100.00;98289.03;4833444;28;24443;-70
2023/10/27 01:52:46;;;;;;;7.53;3.22;;;12.00;99.90;;;12.03;100.00;98284.97;4832986;28;24815;-70
2023/10/27 01:55:09;;;;;;;6.47;3.20;;;12.00;99.90;;;12.04;100.00;98286.63;4851599;28;24471;-70
2023/10/27 01:57:31;;;;;;;6.72;3.67;;;11.90;99.90;;;12.05;100.00;98277.78;4850267;28;24478;-71
2023/10/27 01:59:53;;;;;;;8.90;3.70;;;11.90;99.90;;;11.98;100.00;98271.63;4851183;28;24617;-70
2023/10/27 02:02:15;;;;;;;5.53;3.50;;;11.90;99.90;;;12.06;100.00;98282.03;4832071;28;25121;-70
2023/10/27 02:04:37;;;;;;;8.75;4.10;;;11.90;99.90;;;12.09;100.00;98281.69;4835458;28;24531;-70
2023/10/27 02:06:59;;;;;;;8.00;3.92;;;12.00;99.90;;;12.09;100.00;98284.28;4835685;28;24472;-70
2023/10/27 02:09:21;;;;;;;6.68;4.00;;;12.00;99.90;;;12.09;100.00;98284.28;4835520;28;24482;-69
2023/10/27 02:11:43;;;;;;;9.07;4.13;;;12.00;99.90;;;12.15;100.00;98282.75;4833814;28;24440;-70
2023/10/27 02:14:05;;;;;;;7.38;3.80;;;12.00;99.90;;;12.13;100.00;98280.34;4836681;28;24471;-70
2023/10/27 02:16:27;;;;;;;9.27;4.00;;;12.00;99.90;;;12.16;100.00;98279.97;4837275;28;24531;-69
2023/10/27 02:18:49;;;;;;;8.05;4.25;;;12.00;99.90;;;12.14;100.00;98281.94;4835047;28;24870;-70
2023/10/27 02:21:11;;;;;;;6.90;4.50;;;12.00;99.90;;;12.14;100.00;98276.72;4836254;28;24486;-70
2023/10/27 02:23:33;;;;;;;7.90;4.10;;;12.00;99.90;;;12.13;100.00;98275.09;4852037;28;24837;-71
2023/10/27 02:25:55;;;;;;;8.13;4.87;;;12.00;99.90;;;12.08;100.00;98271.38;4827384;28;25073;-71
2023/10/27 02:28:17;;;;;;;10.77;4.97;;;12.00;99.90;;;12.07;100.00;98269.78;4867305;28;24443;-71
2023/10/27 02:30:39;;;;;;;8.63;4.80;;;12.00;99.90;;;12.09;100.00;98260.78;4835182;28;24527;-71
2023/10/27 02:33:01;;;;;;;5.88;4.65;;;12.00;99.90;;;12.10;100.00;98261.56;4834920;28;24452;-70
2023/10/27 02:35:25;;;;;;;14.45;5.10;;;12.00;99.90;;;12.17;100.00;98255.47;4851186;28;24444;-71
2023/10/27 02:37:47;;;;;;;8.57;5.10;;;12.00;99.90;;;12.10;100.00;98254.53;4837118;28;21120;-71
2023/10/27 02:40:09;;;;;;;7.72;5.00;;;12.00;99.90;;;12.11;100.00;98253.56;4836629;28;24527;-70
2023/10/27 02:42:31;;;;;;;8.90;4.93;;;12.00;99.90;;;12.17;100.00;98259.88;4836779;28;24443;-69
2023/10/27 02:44:53;;;;;;;8.98;5.03;;;12.00;99.90;;;12.22;100.00;98253.09;4836112;28;24436;-70
2023/10/27 02:47:16;;;;;;;8.82;5.13;;;12.10;99.90;;;12.22;100.00;98255.72;4833574;28;25041;-70
2023/10/27 02:49:38;;;;;;;10.93;5.40;;;12.10;99.90;;;12.33;100.00;98260.53;4832448;28;25100;-71
2023/10/27 02:52:00;;;;;;;10.00;5.30;;;12.10;99.90;;;12.27;100.00;98261.25;4832816;28;24480;-70
2023/10/27 02:54:22;;;;;;;8.88;5.22;;;12.10;99.90;;;12.31;100.00;98257.28;4827602;28;24496;-69
2023/10/27 02:56:44;;;;;;;8.75;5.32;;;12.20;99.90;;;12.34;100.00;98250.88;4835156;28;24556;-70
2023/10/27 02:59:06;;;;;;;7.45;5.05;;;12.20;99.90;;;12.36;100.00;98249.72;4832607;28;24436;-69
2023/10/27 03:01:28;;;;;;;8.23;5.20;;;12.20;99.90;;;12.36;100.00;98259.38;4835928;28;25205;-70
2023/10/27 03:03:50;;;;;;;6.10;4.80;;;12.20;99.90;;;12.33;100.00;98247.44;4848935;28;25016;-69
2023/10/27 03:06:12;;;;;;;8.95;5.10;;;12.20;99.90;;;12.34;100.00;98245.66;4850832;28;24544;-71
2023/10/27 03:08:35;;;;;;;6.73;4.50;;;12.20;99.90;;;12.30;100.00;98247.00;4826794;28;24510;-70
2023/10/27 03:10:57;;;;;;;8.82;4.80;;;12.20;99.90;;;12.27;100.00;98255.19;4835014;28;24532;-70
2023/10/27 03:13:20;;;;;;;7.27;4.30;;;12.10;99.90;;;12.29;100.00;98254.03;4835626;28;25084;-69
2023/10/27 03:15:42;;;;;;;7.30;4.40;;;12.10;99.90;;;12.22;100.00;98258.34;4837855;28;24592;-69
2023/10/27 03:18:04;;;;;;;7.97;4.40;;;12.10;99.90;;;12.28;100.00;98256.84;4836365;28;24446;-69
2023/10/27 03:20:25;;;;;;;7.95;4.32;;;12.10;99.90;;;12.24;100.00;98247.72;4838001;28;24563;-69
2023/10/27 03:22:47;;;;;;;5.35;4.00;;;12.10;99.90;;;12.26;100.00;98246.56;4838493;28;24495;-69
2023/10/27 03:25:09;;;;;;;6.88;4.20;;;12.10;99.90;;;12.33;100.00;98239.59;4832879;28;24551;-71
2023/10/27 03:27:32;;;;;;;6.78;4.20;;;12.20;99.90;;;12.26;100.00;98240.50;4851721;28;25313;-70
2023/10/27 03:29:54;;;;;;;5.03;4.00;;;12.10;99.90;;;12.28;100.00;98241.97;4803359;28;24902;-69
2023/10/27 03:32:16;;;;;;;4.20;3.80;;;12.20;99.90;;;12.23;100.00;98239.06;4837055;28;24974;-70
2023/10/27 03:34:38;;;;;;;7.68;4.40;;;12.10;99.90;;;12.18;100.00;98236.16;4837465;28;24444;-71
2023/10/27 03:37:00;;;;;;;6.30;3.90;;;12.10;99.90;;;12.22;100.00;98242.66;4835222;28;24585;-71
2023/10/27 03:39:22;;;;;;;5.50;4.20;;;12.10;99.90;;;12.20;100.00;98249.88;4821564;28;24567;-70
2023/10/27 03:41:43;;;;;;;6.00;3.80;;;12.10;99.90;;;12.18;100.00;98246.63;4838752;28;24460;-70
2023/10/27 03:44:09;;;;;;;5.63;3.42;;;12.10;99.90;;;12.19;100.00;98248.25;4849166;28;24458;-71
2023/10/27 03:46:33;;;;;;;9.10;4.10;;;12.10;99.90;;;12.13;100.00;98243.75;4838663;28;24540;-70
2023/10/27 03:48:55;;;;;;;6.55;3.63;;;12.00;99.90;;;12.14;100.00;98241.91;4834919;28;24998;-70
2023/10/27 03:51:18;;;;;;;4.78;3.10;;;12.00;99.90;;;12.14;100.00;98245.34;4863322;28;25185;-70
2023/10/27 03:53:39;;;;;;;6.35;3.10;;;12.00;99.90;;;12.16;100.00;98247.81;4837552;28;24506;-71
2023/10/27 03:56:01;;;;;;;3.90;3.10;;;12.00;99.90;;;12.15;100.00;98246.16;4832734;28;24514;-69
2023/10/27 03:58:23;;;;;;;6.00;3.10;;;12.00;99.90;;;12.13;100.00;98243.75;4834158;28;24472;-71
2023/10/27 04:01:03;;;;;;;5.15;3.05;;;12.00;99.90;;;12.13;100.00;98243.75;4833897;28;24551;-70
2023/10/27 04:03:28;;;;;;;3.55;2.70;;;12.00;99.90;;;12.11;100.00;98240.50;4836981;28;24532;-70
2023/10/27 04:05:50;;;;;;;3.42;2.80;;;12.00;99.90;;;12.10;100.00;98238.84;4835141;28;24468;-72
2023/10/27 04:08:12;;;;;;;3.03;2.60;;;12.00;99.90;;;12.09;100.00;98237.25;4837834;28;24551;-70
2023/10/27 04:10:37;;;;;;;4.82;2.60;;;12.00;99.90;;;12.14;100.00;98231.47;4833803;28;24503;-71
2023/10/27 04:13:04;;;;;;;4.33;2.40;;;12.00;99.90;;;12.15;100.00;98236.53;4853288;28;24457;-70
2023/10/27 04:15:27;;;;;;;3.97;2.78;;;12.00;99.90;;;12.03;100.00;98237.94;4834271;28;24429;-70
2023/10/27 04:17:51;;;;;;;4.33;2.60;;;12.00;99.90;;;12.07;100.00;98244.47;4837338;28;24858;-71
2023/10/27 04:20:13;;;;;;;5.05;2.60;;;11.90;99.90;;;12.06;100.00;98237.59;4834363;28;24448;-70
2023/10/27 04:22:38;;;;;;;3.40;2.70;;;12.00;99.90;;;12.04;100.00;98233.53;4835503;28;24599;-71
2023/10/27 04:25:00;;;;;;;3.55;2.42;;;11.90;99.90;;;12.04;100.00;98229.13;4834062;28;24451;-69
2023/10/27 04:27:22;;;;;;;2.50;2.30;;;11.90;99.90;;;12.07;100.00;98233.19;4837597;28;24531;-70
2023/10/27 04:29:44;;;;;;;3.85;2.70;;;12.00;99.90;;;12.04;100.00;98236.13;4848740;28;25029;-70
2023/10/27 04:32:06;;;;;;;3.13;2.40;;;11.90;99.90;;;12.06;100.00;98236.78;4844136;28;24441;-71
2023/10/27 04:34:28;;;;;;;3.05;2.67;;;11.90;99.90;;;12.02;100.00;98235.50;4830772;28;25048;-71
2023/10/27 04:36:50;;;;;;;3.85;2.40;;;11.90;99.90;;;12.00;100.00;98235.69;4836295;28;24522;-70
2023/10/27 04:39:12;;;;;;;3.90;2.50;;;11.90;99.90;;;11.92;100.00;98234.94;4828129;28;24441;-71
2023/10/27 04:41:34;;;;;;;3.20;2.40;;;11.90;99.90;;;11.94;100.00;98225.94;4832677;28;24475;-71
2023/10/27 04:43:56;;;;;;;3.38;2.13;;;11.80;99.90;;;12.00;100.00;98230.47;4830765;28;24540;-70
2023/10/27 04:46:18;;;;;;;3.17;2.20;;;11.90;99.90;;;11.91;100.00;98234.13;4818793;28;24468;-71
2023/10/27 04:48:40;;;;;;;2.72;2.00;;;11.80;99.90;;;11.96;100.00;98231.81;4832902;28;24498;-71
2023/10/27 04:51:03;;;;;;;4.30;2.30;;;11.80;99.90;;;11.90;100.00;98232.53;4836984;28;24467;-70
2023/10/27 04:53:25;;;;;;;2.30;2.10;;;11.80;99.90;;;11.89;100.00;98230.06;4817232;28;24998;-70
2023/10/27 04:55:47;;;;;;;2.83;2.10;;;11.80;99.90;;;11.86;100.00;98233.84;4830000;28;25057;-69
2023/10/27 04:58:09;;;;;;;3.10;1.90;;;11.70;99.90;;;11.90;100.00;98234.31;4830865;28;24449;-69
2023/10/27 05:00:31;;;;;;;1.70;1.60;;;11.80;99.90;;;11.88;100.00;98229.28;4859305;28;24448;-70
2023/10/27 05:02:53;;;;;;;3.60;2.10;;;11.80;99.90;;;11.89;100.00;98230.88;4835332;28;24993;-70
2023/10/27 05:05:16;;;;;;;4.60;2.30;;;11.80;99.90;;;11.92;100.00;98230.53;4835370;28;24802;-71
2023/10/27 05:07:38;;;;;;;2.17;1.80;;;11.80;99.90;;;11.86;100.00;98233.84;4850306;28;24989;-71
2023/10/27 05:10:00;;;;;;;2.47;2.10;;;11.70;99.90;;;11.85;100.00;98231.41;4835981;28;25065;-71
2023/10/27 05:12:23;;;;;;;2.13;1.70;;;11.70;99.90;;;11.90;100.00;98235.13;4828952;28;24479;-70
2023/10/27 05:14:44;;;;;;;2.25;2.00;;;11.80;99.90;;;11.89;100.00;98238.72;4826938;28;24547;-70
2023/10/27 05:17:06;;;;;;;2.30;1.83;;;11.80;99.90;;;11.89;100.00;98238.72;4826997;28;25594;-71
2023/10/27 05:19:28;;;;;;;2.58;1.98;;;11.80;99.90;;;11.85;100.00;98245.28;4843213;28;24456;-70
2023/10/27 05:21:50;;;;;;;3.30;1.70;;;11.80;99.90;;;11.86;100.00;98236.44;4828772;28;24436;-70
2023/10/27 05:24:12;;;;;;;1.92;1.80;;;11.80;99.90;;;11.80;100.00;98239.75;4833179;28;24993;-71
2023/10/27 05:26:34;;;;;;;3.22;1.90;;;11.70;99.90;;;11.81;100.00;98244.00;4832721;28;24502;-70
2023/10/27 05:28:56;;;;;;;2.28;1.90;;;11.70;99.90;;;11.82;100.00;98234.38;4827825;28;24571;-71
2023/10/27 05:31:21;;;;;;;1.90;1.80;;;11.70;99.90;;;11.83;100.00;98236.81;4834673;28;24990;-71
2023/10/27 05:33:43;;;;;;;3.40;2.17;;;11.70;99.90;;;11.72;100.00;98231.19;4835831;28;24543;-71
2023/10/27 05:36:05;;;;;;;2.08;1.80;;;11.70;99.90;;;11.80;100.00;98233.75;4815985;28;24452;-71
2023/10/27 05:38:27;;;;;;;2.40;2.20;;;11.70;99.90;;;11.67;100.00;98227.28;4835629;28;24447;-71
2023/10/27 05:40:49;;;;;;;2.50;2.13;;;11.60;99.90;;;11.74;100.00;98226.59;4830567;28;24900;-71
2023/10/27 05:43:12;;;;;;;3.45;1.98;;;11.60;99.90;;;11.85;100.00;98231.41;4830743;28;24444;-71
2023/10/27 05:45:34;;;;;;;2.03;1.80;;;11.70;99.90;;;11.80;100.00;98223.31;4832335;28;24485;-71
2023/10/27 05:47:56;;;;;;;4.10;2.10;;;11.70;99.90;;;11.74;100.00;98224.78;4834677;28;24424;-71
2023/10/27 05:50:18;;;;;;;2.40;2.20;;;11.70;99.90;;;11.79;100.00;98225.09;4833573;28;20782;-71
2023/10/27 05:52:40;;;;;;;3.20;2.10;;;11.70;99.90;;;11.79;100.00;98230.31;4847812;28;24495;-71
2023/10/27 05:55:04;;;;;;;3.50;1.95;;;11.70;99.90;;;11.83;100.00;98221.13;4830901;28;24835;-71
2023/10/27 05:57:26;;;;;;;2.35;1.98;;;11.70;99.90;;;11.81;100.00;98223.13;4835501;28;24467;-71
2023/10/27 05:59:48;;;;;;;1.92;1.75;;;11.70;99.90;;;11.80;100.00;98215.47;4832176;28;24455;-70
2023/10/27 06:02:10;;;;;;;3.23;2.10;;;11.70;99.90;;;11.76;100.00;98214.97;4847268;28;25145;-71
2023/10/27 06:04:38;;;;;;;2.38;1.95;;;11.70;99.90;;;11.74;100.00;98209.13;4828864;28;24564;-71
2023/10/27 06:07:00;;;;;;;1.83;1.73;;;11.60;99.90;;;11.73;100.00;98210.13;4831620;28;24515;-71
2023/10/27 06:09:22;;;;;;;2.60;1.58;;;11.60;99.90;;;11.75;100.00;98209.94;4834770;28;24448;-71
2023/10/27 06:11:44;;;;;;;2.10;1.90;;;11.60;99.90;;;11.74;100.00;98205.69;4834283;28;24451;-70
2023/10/27 06:14:06;;;;;;;1.98;1.80;;;11.60;99.90;;;11.80;100.00;98211.03;4831595;28;24867;-70
2023/10/27 06:16:28;;;;;;;2.05;1.85;;;11.70;99.90;;;11.87;100.00;98211.97;4835953;28;20867;-71
2023/10/27 06:18:54;;;;;;;2.10;2.00;;;11.70;99.90;;;11.87;100.00;98208.53;4832257;28;24519;-70
2023/10/27 06:21:16;;;;;;;2.30;2.10;;;11.70;99.90;;;11.85;100.00;98205.28;4829199;28;24883;-71
2023/10/27 06:23:38;;;;;;;1.90;1.80;;;11.70;99.90;;;11.93;100.00;98203.41;4849896;28;24443;-71
2023/10/27 06:26:00;;;;;;;1.90;1.80;;;11.80;99.90;;;11.88;100.00;98205.75;4830067;28;24583;-71
2023/10/27 06:28:22;;;;;;;3.40;3.00;;;11.80;99.90;;;11.92;100.00;98206.22;4852826;28;24512;-70
2023/10/27 06:30:44;;;;;;;2.17;1.90;;;11.80;99.90;;;11.89;100.00;98202.13;4833920;28;24451;-71
2023/10/27 06:33:06;;;;;;;2.30;2.10;;;11.80;99.90;;;11.80;100.00;98203.19;4830651;28;24560;-71
2023/10/27 06:35:29;;;;;;;2.00;1.80;;;11.80;99.90;;;11.86;100.00;98207.72;4834111;28;24510;-70
2023/10/27 06:37:51;;;;;;;2.07;1.97;;;11.80;99.90;;;11.86;100.00;98210.31;4847946;28;24637;-70
2023/10/27 06:40:13;;;;;;;1.80;1.70;;;11.80;99.90;;;11.84;100.00;98208.91;4823574;28;24554;-72
2023/10/27 06:42:35;;;;;;;1.80;1.70;;;11.70;99.90;;;11.79;100.00;98217.25;4829638;28;24802;-71
2023/10/27 06:44:57;;;;;;;2.13;2.03;;;11.70;99.90;;;11.77;100.00;98210.59;4830306;28;24480;-71
2023/10/27 06:47:18;;;;;;;2.10;2.00;;;11.70;99.90;;;11.77;100.00;98214.00;4834914;28;25147;-73
2023/10/27 06:49:44;;;;;;;2.15;1.80;;;11.70;99.90;;;11.84;100.00;98211.50;4829745;28;24476;-70
2023/10/27 06:52:07;;;;;;;2.20;2.10;;;11.80;99.90;;;11.74;100.00;98210.91;4836461;28;24947;-71
2023/10/27 06:54:29;;;;;;;1.70;1.60;;;11.70;99.90;;;11.77;100.00;98213.19;4833096;28;24472;-71
2023/10/27 06:56:51;;;;;;;1.60;1.50;;;11.70;99.90;;;11.81;100.00;98209.22;4831874;28;24483;-72
2023/10/27 06:59:13;;;;;;;2.30;1.50;;;11.70;99.90;;;11.84;100.00;98217.53;4837097;28;24510;-71
2023/10/27 07:01:34;;;;;;;1.50;1.40;;;11.80;99.90;;;11.89;100.00;98220.44;4834061;28;24524;-72
2023/10/27 07:03:56;;;;;;;1.20;1.20;;;11.80;99.90;;;11.92;100.00;98220.09;4850738;28;24452;-71
2023/10/27 07:06:19;;;;;;;1.60;1.50;;;11.80;99.90;;;11.81;100.00;98219.69;4818368;28;24511;-71
2023/10/27 07:08:45;;;;;;;1.50;1.40;;;11.80;99.90;;;11.86;100.00;98223.38;4836755;28;24514;-71
2023/10/27 07:11:07;;;;;;;1.30;1.30;;;11.80;99.90;;;11.86;100.00;98223.38;4834363;28;25248;-71
2023/10/27 07:13:30;;;;;;;1.30;1.20;;;11.80;99.90;;;11.96;100.00;98229.19;4834809;28;25092;-71
2023/10/27 07:15:53;;;;;;;1.40;1.00;;;11.90;99.90;;;11.96;100.00;98231.81;4836179;28;24453;-71
2023/10/27 07:18:14;;;;;;;3.70;1.05;;;11.90;99.90;;;11.99;100.00;98234.06;4853591;28;24440;-71
2023/10/27 07:20:39;;;;;;;0.90;0.90;;;11.90;99.90;;;11.95;100.00;98230.16;4834052;28;24446;-70
2023/10/27 07:23:03;;;;;;;2.00;0.90;;;11.90;99.90;;;12.05;100.00;98240.38;4870383;28;24845;-71
2023/10/27 07:25:25;;;;;;;0.90;0.80;;;11.90;99.90;;;12.05;100.00;98240.38;4869191;28;24574;-74
2023/10/27 07:27:48;;;;;;;0.80;0.80;;;12.00;99.90;;;12.03;100.00;98240.53;4827719;28;24482;-71
2023/10/27 07:30:11;;;;;;;0.85;0.80;;;11.90;99.90;;;12.11;100.00;98240.50;4834546;28;24511;-72
2023/10/27 07:32:32;;;;;;;1.00;1.00;;;12.00;99.90;;;12.02;100.00;98246.78;4819611;28;24439;-70
2023/10/27 07:34:55;;;;;;;1.30;1.10;;;11.90;99.90;;;12.15;100.00;98247.00;4832430;28;24463;-71
2023/10/27 07:37:19;;;;;;;1.00;1.00;;;12.00;99.90;;;12.11;100.00;98245.72;4837785;28;24440;-72
2023/10/27 07:39:41;;;;;;;0.90;0.90;;;12.00;99.90;;;12.13;100.00;98254.19;4851299;28;24495;-72
2023/10/27 07:42:04;;;;;;;0.90;0.90;;;12.00;99.90;;;12.15;100.00;98260.06;4835999;28;24468;-71
2023/10/27 07:44:26;;;;;;;0.90;0.90;;;12.00;99.90;;;12.12;100.00;98263.00;4828657;28;24899;-72
2023/10/27 07:46:48;;;;;;;0.77;0.77;;;12.00;99.90;;;12.20;100.00;98265.53;4825190;28;24866;-69
2023/10/27 07:49:10;;;;;;;0.68;0.68;;;12.10;99.90;;;12.22;100.00;98252.31;4835704;28;24976;-72
2023/10/27 07:51:33;;;;;;;0.60;0.60;;;12.10;99.90;;;12.32;100.00;98256.31;4849157;28;24523;-71
2023/10/27 07:53:54;;;;;;;0.60;0.60;;;12.10;99.90;;;12.44;100.00;98261.88;4836054;28;24986;-71
2023/10/27 07:56:18;;;;;;;0.60;0.60;;;12.20;99.90;;;12.44;100.00;98259.28;4834670;28;25052;-68
2023/10/27 07:58:39;;;;;;;1.20;0.60;;;12.30;99.90;;;12.52;100.00;98253.16;4831792;28;25068;-71
2023/10/27 08:01:05;;;;;;;0.50;0.50;;;12.40;99.90;;;12.54;100.00;98266.88;4852363;28;24439;-71
2023/10/27 08:03:28;;;;;;;0.57;0.50;;;12.40;99.90;;;12.64;100.00;98277.88;4841785;28;24507;-72
2023/10/27 08:05:51;;;;;;;0.50;0.50;;;12.40;99.90;;;12.71;99.79;98279.59;4836853;28;24447;-72
2023/10/27 08:08:13;;;;;;;0.60;0.60;;;12.50;99.90;;;12.80;98.44;98282.94;4831245;28;24559;-70
2023/10/27 08:10:38;;;;;;;0.52;0.52;;;12.60;99.90;;;12.89;97.87;98297.53;4831869;28;24443;-71
2023/10/27 08:13:00;;;;;;;0.50;0.50;;;12.70;99.90;;;13.00;96.63;98299.69;4833430;28;24445;-71
2023/10/27 08:15:23;;;;;;;0.50;0.50;;;12.80;99.90;;;13.02;96.26;98308.19;4834365;28;24452;-73
2023/10/27 08:17:45;;;;;;;0.60;0.60;;;12.80;99.90;;;13.04;96.46;98320.13;4852175;28;25053;-72
2023/10/27 08:20:07;;;;;;;0.50;0.50;;;12.90;99.90;;;13.12;96.09;98327.06;4835433;28;24565;-71
2023/10/27 08:22:30;;;;;;;0.50;0.50;;;12.90;99.90;;;13.14;95.63;98325.91;4837103;28;24524;-71
2023/10/27 08:24:53;;;;;;;0.50;0.50;;;13.00;99.90;;;13.24;95.29;98344.75;4852287;28;24571;-71
2023/10/27 08:27:14;;;;;;;0.98;0.70;;;13.00;99.90;;;13.32;94.89;98362.19;4838510;28;24440;-71
2023/10/27 08:29:36;;;;;;;1.10;0.60;;;13.10;99.90;;;13.40;93.77;98369.13;4831558;28;25060;-70
2023/10/27 08:31:58;;;;;;;0.50;0.50;;;13.20;99.90;;;13.44;92.23;98370.41;4835567;28;24858;-71
2023/10/27 08:34:21;;;;;;;0.60;0.60;;;13.30;99.90;;;13.38;91.95;98377.16;4850731;28;24542;-71
2023/10/27 08:36:45;;;;;;;0.60;0.60;;;13.20;99.90;;;13.36;92.30;98388.81;4833796;28;24455;-71
2023/10/27 08:39:07;;;;;;;0.50;0.50;;;13.20;99.90;;;13.41;92.00;98391.72;4835117;28;24440;-71
2023/10/27 08:41:29;;;;;;;0.60;0.60;;;13.20;99.90;;;13.34;92.38;98394.25;4835420;28;24521;-70
2023/10/27 08:43:55;;;;;;;0.53;0.53;;;13.20;99.90;;;13.30;92.38;98406.06;4843089;28;24558;-71
2023/10/27 08:46:19;;;;;;;0.60;0.60;;;13.20;99.90;;;13.31;91.69;98406.91;4835810;28;24506;-71
2023/10/27 08:48:42;;;;;;;0.50;0.50;;;13.10;99.90;;;13.35;91.83;98414.22;4844261;28;25137;-71
2023/10/27 08:51:09;;;;;;;0.60;0.60;;;13.20;99.90;;;13.33;90.32;98413.56;4836874;28;24437;-71
2023/10/27 08:53:31;;;;;;;1.00;0.70;;;13.20;99.90;;;13.31;90.96;98423.41;4849333;28;24543;-72
2023/10/27 08:55:54;;;;;;;0.70;0.70;;;13.20;99.90;;;13.33;92.25;98428.47;4830920;28;24551;-71
2023/10/27 08:58:16;;;;;;;0.90;0.60;;;13.20;99.90;;;13.35;91.08;98434.34;4832712;28;24942;-71
2023/10/27 09:00:38;;;;;;;0.60;0.60;;;13.20;99.90;;;13.39;91.81;98441.66;4833007;28;24448;-71
2023/10/27 09:03:16;;;;;;;0.57;0.57;;;13.20;99.90;;;13.43;90.98;98442.91;4835894;28;24469;-72
2023/10/27 09:05:38;;;;;;;1.70;0.57;;;13.20;99.90;;;13.46;90.39;98445.16;4826456;28;24451;-71
2023/10/27 09:08:00;;;;;;;0.60;0.60;;;13.30;99.90;;;13.57;90.06;98441.28;4866959;28;24444;-70
2023/10/27 09:10:23;;;;;;;1.40;0.60;;;13.30;99.90;;;13.60;90.32;98444.38;4817283;28;24528;-71
2023/10/27 09:12:47;;;;;;;0.50;0.50;;;13.40;99.90;;;13.83;90.25;98455.53;4832635;28;24482;-71
2023/10/27 09:15:12;;;;;;;0.60;0.60;;;13.50;99.90;;;14.12;89.34;98448.63;4824284;28;24470;-70
2023/10/27 09:17:57;;;;;;;0.60;0.60;;;13.70;99.90;;;14.30;88.25;98462.13;4840300;28;25089;-71
2023/10/27 09:20:23;;;;;;;1.00;0.80;;;13.90;99.90;;;14.34;87.41;98458.16;4832123;28;25296;-71
2023/10/27 09:23:12;;;;;;;1.20;1.10;;;14.00;99.90;;;14.36;86.33;98462.22;4836113;28;24560;-71
2023/10/27 09:25:35;;;;;;;0.63;0.63;;;14.10;99.90;;;14.32;85.37;98457.53;4828347;28;24484;-71
2023/10/27 09:27:58;;;;;;;0.80;0.80;;;14.10;99.90;;;14.26;86.03;98469.53;4831514;28;24444;-72
2023/10/27 09:30:40;;;;;;;1.52;1.42;;;14.10;99.90;;;14.22;86.11;98475.34;4847483;28;24448;-71
2023/10/27 09:33:26;;;;;;;0.80;0.80;;;14.00;99.90;;;14.18;86.24;98484.59;4832020;28;24468;-71
2023/10/27 09:35:51;;;;;;;0.60;0.60;;;14.00;99.90;;;14.14;86.65;98488.56;4834874;28;24547;-71
2023/10/27 09:38:14;;;;;;;0.70;0.70;;;13.90;99.90;;;14.14;87.55;98489.38;4847179;28;24571;-71
2023/10/27 09:40:40;;;;;;;0.70;0.70;;;13.90;99.90;;;14.20;87.65;98495.69;4834918;28;25058;-72
2023/10/27 09:43:02;;;;;;;0.90;0.70;;;14.00;99.90;;;14.32;86.87;98502.09;4832061;28;25009;-71
2023/10/27 09:45:28;;;;;;;1.00;0.90;;;14.00;99.90;;;14.24;86.62;98494.31;4828940;28;24548;-71
2023/10/27 09:47:55;;;;;;;0.80;0.80;;;14.10;99.90;;;14.23;86.40;98495.31;4830471;28;24519;-71
2023/10/27 09:50:24;;;;;;;1.20;0.70;;;14.00;99.90;;;14.21;88.00;98492.88;4847679;28;24535;-71
2023/10/27 09:52:48;;;;;;;0.80;0.80;;;14.00;99.90;;;14.27;88.01;98507.09;4835894;28;24467;-71
2023/10/27 09:55:14;;;;;;;0.60;0.60;;;14.00;99.90;;;14.30;87.64;98496.25;4832501;28;24546;-71